createdAt,value
2018-04-02T00:01:39.235Z,9.14
2018-04-02T00:04:07.524Z,9.10
2018-04-02T00:06:35.799Z,9.18
2018-04-02T00:09:04.083Z,9.30
2018-04-02T00:11:32.364Z,9.26
2018-04-02T00:14:00.647Z,9.37
2018-04-02T00:16:28.924Z,9.03
2018-04-02T00:18:57.208Z,8.99
2018-04-02T00:21:25.483Z,9.10
2018-04-02T00:23:53.764Z,9.15
2018-04-02T00:26:22.048Z,9.27
2018-04-02T00:28:50.332Z,9.02
2018-04-02T00:31:18.605Z,9.19
2018-04-02T00:33:46.888Z,9.03
2018-04-02T00:36:15.171Z,8.74
2018-04-02T00:38:43.597Z,8.64
2018-04-02T00:41:11.876Z,8.65
2018-04-02T00:43:40.184Z,8.65
2018-04-02T00:46:08.460Z,8.44
2018-04-02T00:48:36.731Z,8.33
2018-04-02T00:51:05.015Z,8.54
2018-04-02T00:53:33.291Z,8.44
2018-04-02T00:56:01.579Z,8.35
2018-04-02T00:58:29.859Z,8.64
2018-04-02T01:00:58.148Z,8.11
2018-04-02T01:03:26.427Z,8.45
2018-04-02T01:05:54.731Z,8.11
2018-04-02T01:08:23.004Z,8.28
2018-04-02T01:10:51.288Z,8.26
2018-04-02T01:13:19.577Z,8.13
2018-04-02T01:15:47.851Z,8.28
2018-04-02T01:18:16.127Z,8.17
2018-04-02T01:20:44.403Z,8.26
2018-04-02T01:23:12.911Z,8.43
2018-04-02T01:25:41.183Z,8.30
2018-04-02T01:28:09.474Z,8.35
2018-04-02T01:30:37.753Z,8.40
2018-04-02T01:33:06.034Z,8.32
2018-04-02T01:35:34.308Z,8.34
2018-04-02T01:38:02.603Z,8.32
2018-04-02T01:40:30.880Z,7.75
2018-04-02T01:42:59.151Z,8.13
2018-04-02T01:45:27.434Z,7.76
2018-04-02T01:47:55.713Z,7.93
2018-04-02T01:50:23.995Z,7.94
2018-04-02T01:52:52.272Z,7.90
2018-04-02T01:55:20.563Z,8.06
2018-04-02T01:57:48.836Z,8.09
2018-04-02T02:00:17.127Z,8.24
2018-04-02T02:02:45.403Z,7.78
2018-04-02T02:05:13.691Z,7.66
2018-04-02T02:07:41.967Z,7.93
2018-04-02T02:10:10.251Z,7.86
2018-04-02T02:12:38.524Z,7.52
2018-04-02T02:15:06.827Z,7.61
2018-04-02T02:17:35.111Z,7.65
2018-04-02T02:20:03.387Z,7.55
2018-04-02T02:22:31.667Z,7.56
2018-04-02T02:24:59.939Z,7.46
2018-04-02T02:27:28.223Z,7.49
2018-04-02T02:29:56.495Z,7.21
2018-04-02T02:32:24.784Z,7.37
2018-04-02T02:34:53.058Z,7.17
2018-04-02T02:37:21.344Z,7.20
2018-04-02T02:39:49.620Z,7.42
2018-04-02T02:42:17.904Z,7.34
2018-04-02T02:44:46.179Z,7.32
2018-04-02T02:47:14.453Z,7.34
2018-04-02T02:49:42.741Z,7.31
2018-04-02T02:52:11.014Z,7.12
2018-04-02T02:54:39.305Z,7.14
2018-04-02T02:57:07.584Z,7.07
2018-04-02T02:59:35.863Z,7.05
2018-04-02T03:02:04.140Z,6.85
2018-04-02T03:04:32.419Z,6.92
2018-04-02T03:07:00.696Z,7.17
2018-04-02T03:09:28.994Z,7.01
2018-04-02T03:11:57.266Z,7.03
2018-04-02T03:14:25.547Z,7.27
2018-04-02T03:16:53.817Z,7.32
2018-04-02T03:19:22.093Z,7.34
2018-04-02T03:21:50.375Z,7.41
2018-04-02T03:24:18.651Z,7.42
2018-04-02T03:26:46.932Z,7.18
2018-04-02T03:29:15.210Z,7.17
2018-04-02T03:31:43.485Z,7.44
2018-04-02T03:34:11.762Z,7.43
2018-04-02T03:36:40.047Z,7.34
2018-04-02T03:39:08.331Z,7.47
2018-04-02T03:41:36.619Z,7.45
2018-04-02T03:44:04.895Z,7.39
2018-04-02T03:46:33.168Z,7.61
2018-04-02T03:49:01.452Z,7.54
2018-04-02T03:51:29.723Z,7.62
2018-04-02T03:53:58.007Z,7.34
2018-04-02T03:56:26.291Z,7.40
2018-04-02T03:58:54.567Z,7.59
2018-04-02T04:01:22.836Z,7.50
2018-04-02T04:03:51.126Z,7.46
2018-04-02T04:06:19.400Z,7.44
2018-04-02T04:08:47.683Z,7.31
2018-04-02T04:11:15.960Z,7.33
2018-04-02T04:13:44.263Z,7.55
2018-04-02T04:16:12.551Z,7.61
2018-04-02T04:18:40.816Z,7.21
2018-04-02T04:21:09.108Z,7.11
2018-04-02T04:23:37.391Z,7.04
2018-04-02T04:26:05.678Z,7.05
2018-04-02T04:28:33.950Z,7.19
2018-04-02T04:31:02.245Z,7.30
2018-04-02T04:33:30.512Z,7.23
2018-04-02T04:35:58.795Z,7.24
2018-04-02T04:38:27.072Z,7.05
2018-04-02T04:40:55.355Z,6.76
2018-04-02T04:43:23.628Z,6.73
2018-04-02T04:45:51.899Z,6.99
2018-04-02T04:48:20.183Z,6.95
2018-04-02T04:50:48.460Z,6.81
2018-04-02T04:53:16.743Z,6.92
2018-04-02T04:55:45.012Z,7.18
2018-04-02T04:58:13.299Z,7.12
2018-04-02T05:00:41.577Z,7.23
2018-04-02T05:03:09.864Z,6.90
2018-04-02T05:05:38.138Z,6.81
2018-04-02T05:08:06.420Z,6.85
2018-04-02T05:10:34.771Z,6.85
2018-04-02T05:13:03.052Z,6.81
2018-04-02T05:15:31.324Z,6.63
2018-04-02T05:17:59.607Z,6.67
2018-04-02T05:20:27.879Z,7.11
2018-04-02T05:22:56.257Z,7.11
2018-04-02T05:25:24.540Z,7.31
2018-04-02T05:27:52.808Z,7.37
2018-04-02T05:30:21.092Z,7.46
2018-04-02T05:32:49.364Z,7.53
2018-04-02T05:35:17.656Z,7.64
2018-04-02T05:37:45.931Z,7.51
2018-04-02T05:40:14.219Z,7.46
2018-04-02T05:42:42.493Z,7.63
2018-04-02T05:45:10.780Z,7.41
2018-04-02T05:47:39.055Z,7.24
2018-04-02T05:50:07.353Z,7.35
2018-04-02T05:52:35.622Z,7.20
2018-04-02T05:55:03.896Z,7.45
2018-04-02T05:57:32.183Z,7.44
2018-04-02T06:00:00.459Z,7.41
2018-04-02T06:02:28.747Z,7.59
2018-04-02T06:04:57.028Z,7.69
2018-04-02T06:07:25.316Z,7.66
2018-04-02T06:09:53.588Z,7.45
2018-04-02T06:12:21.875Z,7.45
2018-04-02T06:14:50.158Z,7.27
2018-04-02T06:17:18.460Z,7.49
2018-04-02T06:19:46.727Z,7.64
2018-04-02T06:22:15.016Z,7.50
2018-04-02T06:24:43.293Z,7.56
2018-04-02T06:27:11.566Z,7.08
2018-04-02T06:29:39.850Z,7.41
2018-04-02T06:32:08.126Z,7.54
2018-04-02T06:34:36.417Z,7.51
2018-04-02T06:37:04.749Z,7.45
2018-04-02T06:39:32.976Z,7.72
2018-04-02T06:42:01.248Z,7.61
2018-04-02T06:44:29.538Z,7.79
2018-04-02T06:46:57.811Z,7.90
2018-04-02T06:49:26.092Z,7.96
2018-04-02T06:51:54.374Z,8.08
2018-04-02T06:54:22.655Z,8.29
2018-04-02T06:56:50.927Z,8.44
2018-04-02T06:59:19.208Z,8.49
2018-04-02T07:01:47.500Z,8.50
2018-04-02T07:04:15.768Z,8.37
2018-04-02T07:06:44.047Z,8.31
2018-04-02T07:09:12.324Z,8.28
2018-04-02T07:11:40.617Z,8.29
2018-04-02T07:14:08.891Z,8.42
2018-04-02T07:16:37.176Z,8.29
2018-04-02T07:19:05.443Z,8.50
2018-04-02T07:21:33.723Z,8.59
2018-04-02T07:24:02.000Z,8.92
2018-04-02T07:26:30.295Z,9.26
2018-04-02T07:28:58.563Z,9.12
2018-04-02T07:31:26.839Z,9.64
2018-04-02T07:33:55.123Z,9.38
2018-04-02T07:36:23.399Z,9.61
2018-04-02T07:38:51.691Z,9.31
2018-04-02T07:41:19.964Z,9.68
2018-04-02T07:43:48.243Z,9.29
2018-04-02T07:46:16.517Z,9.57
2018-04-02T07:48:44.812Z,9.45
2018-04-02T07:51:13.079Z,9.73
2018-04-02T07:53:41.363Z,9.60
2018-04-02T07:56:09.655Z,9.59
2018-04-02T07:58:37.919Z,9.63
2018-04-02T08:01:06.200Z,9.91
2018-04-02T08:03:34.481Z,9.97
2018-04-02T08:06:02.771Z,10.07
2018-04-02T08:08:31.064Z,10.22
2018-04-02T08:10:59.340Z,9.98
2018-04-02T08:13:27.639Z,10.15
2018-04-02T08:15:55.916Z,10.46
2018-04-02T08:18:25.144Z,10.41
2018-04-02T08:20:53.539Z,10.62
2018-04-02T08:23:21.823Z,10.87
2018-04-02T08:25:50.159Z,10.65
2018-04-02T08:28:18.447Z,10.63
2018-04-02T08:30:46.747Z,10.44
2018-04-02T08:33:15.033Z,10.35
2018-04-02T08:35:43.324Z,10.42
2018-04-02T08:38:11.712Z,10.62
2018-04-02T08:40:40.269Z,10.60
2018-04-02T08:43:08.543Z,10.73
2018-04-02T08:45:36.838Z,11.07
2018-04-02T08:48:05.127Z,11.05
2018-04-02T08:50:33.408Z,11.41
2018-04-02T08:53:01.696Z,11.28
2018-04-02T08:55:29.975Z,10.97
2018-04-02T08:57:58.271Z,10.76
2018-04-02T09:00:26.548Z,10.99
2018-04-02T09:02:54.839Z,10.91
2018-04-02T09:05:23.122Z,10.73
2018-04-02T09:07:51.416Z,10.67
2018-04-02T09:10:19.698Z,10.85
2018-04-02T09:12:47.975Z,11.00
2018-04-02T09:15:16.269Z,11.35
2018-04-02T09:17:44.553Z,11.07
2018-04-02T09:20:12.863Z,11.39
2018-04-02T09:22:41.158Z,11.53
2018-04-02T09:25:09.447Z,11.73
2018-04-02T09:27:37.731Z,11.54
2018-04-02T09:30:06.050Z,12.23
2018-04-02T09:32:34.340Z,12.22
2018-04-02T09:35:02.912Z,13.02
2018-04-02T09:37:31.195Z,12.76
2018-04-02T09:39:59.475Z,12.56
2018-04-02T09:42:27.763Z,12.40
2018-04-02T09:44:57.983Z,12.60
2018-04-02T09:47:26.305Z,12.81
2018-04-02T09:49:54.596Z,12.32
2018-04-02T09:52:22.880Z,12.08
2018-04-02T09:54:51.159Z,12.21
2018-04-02T09:57:20.460Z,12.33
2018-04-02T09:59:48.755Z,12.20
2018-04-02T10:02:17.055Z,11.98
2018-04-02T10:04:45.389Z,11.85
2018-04-02T10:07:13.632Z,11.94
2018-04-02T10:12:39.185Z,11.66
2018-04-02T10:15:07.451Z,11.98
2018-04-02T10:17:35.736Z,11.74
2018-04-02T10:20:04.112Z,11.92
2018-04-02T10:22:32.384Z,12.28
2018-04-02T10:25:00.675Z,12.35
2018-04-02T10:27:28.964Z,12.19
2018-04-02T10:29:59.226Z,12.56
2018-04-02T10:32:27.433Z,12.31
2018-04-02T10:35:01.564Z,12.25
2018-04-02T10:37:29.854Z,12.44
2018-04-02T10:39:58.737Z,12.34
2018-04-02T10:42:27.111Z,12.43
2018-04-02T10:44:55.316Z,12.28
2018-04-02T10:47:23.600Z,12.36
2018-04-02T10:49:51.901Z,12.47
2018-04-02T10:52:20.175Z,12.66
2018-04-02T10:54:48.477Z,13.02
2018-04-02T10:57:16.777Z,13.23
2018-04-02T10:59:45.093Z,12.85
2018-04-02T11:02:13.371Z,12.83
2018-04-02T11:04:41.696Z,13.16
2018-04-02T11:07:09.976Z,13.47
2018-04-02T11:09:38.255Z,13.50
2018-04-02T11:12:06.597Z,14.21
2018-04-02T11:14:34.835Z,14.02
2018-04-02T11:17:03.183Z,14.37
2018-04-02T11:19:31.480Z,14.05
2018-04-02T11:21:59.751Z,14.03
2018-04-02T11:24:28.039Z,14.18
2018-04-02T11:26:56.374Z,14.44
2018-04-02T11:29:24.651Z,13.99
2018-04-02T11:31:53.020Z,14.08
2018-04-02T11:34:21.324Z,14.06
2018-04-02T11:36:49.592Z,14.19
2018-04-02T11:39:17.888Z,14.12
2018-04-02T11:41:46.195Z,14.23
2018-04-02T11:44:14.471Z,14.35
2018-04-02T11:46:42.743Z,14.16
2018-04-02T11:49:11.031Z,14.27
2018-04-02T11:51:39.300Z,14.70
2018-04-02T11:54:07.745Z,14.75
2018-04-02T11:56:36.028Z,14.72
2018-04-02T11:59:04.439Z,15.30
2018-04-02T12:01:32.703Z,15.46
2018-04-02T12:04:01.050Z,15.18
2018-04-02T12:06:29.271Z,14.86
2018-04-02T12:09:00.642Z,15.35
2018-04-02T12:11:30.962Z,15.11
2018-04-02T12:14:00.299Z,15.28
2018-04-02T12:16:28.675Z,15.55
2018-04-02T12:18:56.947Z,15.45
2018-04-02T12:21:27.570Z,15.36
2018-04-02T12:23:55.826Z,15.60
2018-04-02T12:26:24.191Z,15.34
2018-04-02T12:28:52.479Z,15.20
2018-04-02T12:31:20.752Z,15.23
2018-04-02T12:33:49.048Z,15.49
2018-04-02T12:36:17.324Z,15.79
2018-04-02T12:38:45.591Z,15.59
2018-04-02T12:41:13.917Z,15.46
2018-04-02T12:43:42.211Z,15.70
2018-04-02T12:46:10.473Z,15.73
2018-04-02T12:48:38.753Z,16.13
2018-04-02T12:51:07.089Z,15.79
2018-04-02T12:53:35.464Z,16.01
2018-04-02T12:56:03.688Z,16.16
2018-04-02T12:58:31.971Z,16.39
2018-04-02T13:01:00.281Z,15.64
2018-04-02T13:03:28.518Z,15.99
2018-04-02T13:05:56.861Z,16.21
2018-04-02T13:08:25.118Z,16.17
2018-04-02T13:10:53.377Z,16.09
2018-04-02T13:13:21.656Z,16.05
2018-04-02T13:15:49.924Z,16.03
2018-04-02T13:18:18.383Z,15.93
2018-04-02T13:20:46.775Z,15.85
2018-04-02T13:23:15.053Z,16.11
2018-04-02T13:25:43.320Z,16.15
2018-04-02T13:28:12.119Z,16.24
2018-04-02T13:30:41.233Z,16.42
2018-04-02T13:33:10.278Z,16.40
2018-04-02T13:35:38.712Z,16.22
2018-04-02T13:38:06.987Z,16.13
2018-04-02T13:40:35.254Z,15.98
2018-04-02T13:43:03.539Z,15.84
2018-04-02T13:45:31.804Z,15.65
2018-04-02T13:48:00.127Z,15.73
2018-04-02T13:50:28.436Z,15.51
2018-04-02T13:52:56.742Z,15.38
2018-04-02T13:55:24.985Z,15.10
2018-04-02T13:57:53.268Z,15.01
2018-04-02T14:00:21.527Z,14.99
2018-04-02T14:02:49.779Z,14.98
2018-04-02T14:05:18.068Z,15.15
2018-04-02T14:07:46.328Z,15.13
2018-04-02T14:10:14.605Z,15.50
2018-04-02T14:12:42.887Z,15.21
2018-04-02T14:15:11.287Z,14.98
2018-04-02T14:17:39.564Z,15.30
2018-04-02T14:20:07.839Z,15.03
2018-04-02T14:22:36.118Z,15.15
2018-04-02T14:25:04.366Z,15.14
2018-04-02T14:27:32.726Z,14.80
2018-04-02T14:30:01.044Z,15.04
2018-04-02T14:32:29.303Z,15.06
2018-04-02T14:34:57.588Z,15.37
2018-04-02T14:37:25.855Z,15.52
2018-04-02T14:39:54.115Z,15.57
2018-04-02T14:42:22.392Z,15.23
2018-04-02T14:44:50.668Z,15.43
2018-04-02T14:47:18.967Z,15.46
2018-04-02T14:49:55.459Z,15.44
2018-04-02T14:52:23.733Z,15.42
2018-04-02T14:54:52.025Z,15.54
2018-04-02T14:57:20.499Z,15.64
2018-04-02T14:59:48.741Z,15.66
2018-04-02T15:02:17.005Z,15.70
2018-04-02T15:04:45.280Z,15.74
2018-04-02T15:07:13.644Z,15.57
2018-04-02T15:09:54.079Z,15.59
2018-04-02T15:12:25.964Z,15.62
2018-04-02T15:14:54.241Z,15.76
2018-04-02T15:17:22.500Z,15.78
2018-04-02T15:19:50.791Z,15.80
2018-04-02T15:22:19.073Z,15.74
2018-04-02T15:24:47.374Z,15.80
2018-04-02T15:27:15.644Z,15.62
2018-04-02T15:29:43.923Z,15.87
2018-04-02T15:32:12.843Z,15.86
2018-04-02T15:34:41.119Z,15.88
2018-04-02T15:37:09.400Z,15.87
2018-04-02T15:39:37.709Z,15.84
2018-04-02T15:42:05.971Z,16.13
2018-04-02T15:44:34.243Z,15.96
2018-04-02T15:47:02.508Z,15.96
2018-04-02T15:49:30.780Z,15.95
2018-04-02T15:51:59.888Z,15.96
2018-04-02T15:54:28.172Z,16.05
2018-04-02T15:56:56.428Z,16.03
2018-04-02T15:59:24.712Z,16.14
2018-04-02T16:01:53.003Z,16.14
2018-04-02T16:04:21.228Z,16.10
2018-04-02T16:06:49.527Z,16.09
2018-04-02T16:09:17.795Z,16.00
2018-04-02T16:11:46.058Z,15.97
2018-04-02T16:14:14.336Z,16.07
2018-04-02T16:16:42.611Z,16.08
2018-04-02T16:19:10.859Z,16.17
2018-04-02T16:21:40.085Z,16.04
2018-04-02T16:24:08.371Z,15.91
2018-04-02T16:26:36.617Z,16.05
2018-04-02T16:29:04.895Z,16.03
2018-04-02T16:31:33.176Z,15.81
2018-04-02T16:34:01.443Z,15.80
2018-04-02T16:36:29.722Z,15.88
2018-04-02T16:38:57.984Z,15.78
2018-04-02T16:41:26.247Z,15.81
2018-04-02T16:43:54.531Z,15.80
2018-04-02T16:46:22.791Z,15.85
2018-04-02T16:48:51.055Z,15.96
2018-04-02T16:51:19.357Z,15.64
2018-04-02T16:53:47.609Z,15.73
2018-04-02T16:56:15.864Z,15.64
2018-04-02T16:58:44.172Z,15.72
2018-04-02T17:01:12.432Z,15.76
2018-04-02T17:03:40.704Z,15.63
2018-04-02T17:06:09.019Z,15.58
2018-04-02T17:08:37.256Z,15.59
2018-04-02T17:11:05.530Z,15.56
2018-04-02T17:13:33.794Z,15.53
2018-04-02T17:16:02.052Z,15.62
2018-04-02T17:18:30.311Z,15.34
2018-04-02T17:20:58.587Z,15.34
2018-04-02T17:23:26.852Z,15.41
2018-04-02T17:25:55.118Z,15.25
2018-04-02T17:28:23.415Z,15.26
2018-04-02T17:30:51.687Z,15.32
2018-04-02T17:33:19.964Z,15.21
2018-04-02T17:35:48.314Z,15.10
2018-04-02T17:38:16.561Z,15.29
2018-04-02T17:40:44.823Z,15.26
2018-04-02T17:43:13.090Z,15.22
2018-04-02T17:45:41.355Z,15.27
2018-04-02T17:48:09.631Z,15.13
2018-04-02T17:50:38.655Z,15.18
2018-04-02T17:53:06.912Z,15.22
2018-04-02T17:55:35.171Z,15.14
2018-04-02T17:58:03.551Z,15.08
2018-04-02T18:00:31.819Z,15.18
2018-04-02T18:03:00.085Z,15.25
2018-04-02T18:05:28.688Z,15.23
2018-04-02T18:07:56.959Z,15.17
2018-04-02T18:10:25.236Z,15.26
2018-04-02T18:12:53.615Z,15.14
2018-04-02T18:15:21.875Z,15.14
2018-04-02T18:17:50.139Z,14.92
2018-04-02T18:20:18.420Z,14.98
2018-04-02T18:22:46.699Z,14.99
2018-04-02T18:25:14.965Z,15.06
2018-04-02T18:27:43.258Z,14.98
2018-04-02T18:30:11.544Z,15.04
2018-04-02T18:32:39.825Z,14.98
2018-04-02T18:35:08.112Z,15.05
2018-04-02T18:37:36.399Z,15.04
2018-04-02T18:40:04.659Z,15.06
2018-04-02T18:42:32.951Z,15.03
2018-04-02T18:45:01.226Z,15.14
2018-04-02T18:47:29.472Z,15.17
2018-04-02T18:49:58.095Z,15.08
2018-04-02T18:52:26.358Z,15.05
2018-04-02T18:54:54.624Z,14.85
2018-04-02T18:57:22.913Z,14.73
2018-04-02T18:59:51.184Z,14.73
2018-04-02T19:02:19.455Z,14.84
2018-04-02T19:04:47.770Z,14.86
2018-04-02T19:07:16.035Z,14.93
2018-04-02T19:09:44.300Z,14.96
2018-04-02T19:12:12.604Z,14.80
2018-04-02T19:14:40.884Z,14.95
2018-04-02T19:17:09.143Z,14.83
2018-04-02T19:19:37.434Z,14.80
2018-04-02T19:22:05.700Z,14.74
2018-04-02T19:24:33.963Z,14.82
2018-04-02T19:27:02.271Z,15.02
2018-04-02T19:29:30.536Z,14.88
2018-04-02T19:31:58.795Z,14.78
2018-04-02T19:34:27.111Z,14.86
2018-04-02T19:36:55.391Z,14.80
2018-04-02T19:39:23.659Z,14.78
2018-04-02T19:41:51.935Z,14.79
2018-04-02T19:44:20.265Z,14.81
2018-04-02T19:46:48.515Z,14.64
2018-04-02T19:49:16.797Z,14.85
2018-04-02T19:51:45.064Z,14.85
2018-04-02T19:54:13.326Z,14.73
2018-04-02T19:56:41.617Z,14.72
2018-04-02T19:59:09.876Z,14.67
2018-04-02T20:01:38.156Z,14.67
2018-04-02T20:04:06.471Z,14.58
2018-04-02T20:06:34.747Z,14.56
2018-04-02T20:09:03.009Z,14.49
2018-04-02T20:11:31.291Z,14.58
2018-04-02T20:13:59.595Z,14.43
2018-04-02T20:16:27.864Z,14.53
2018-04-02T20:18:56.140Z,14.48
2018-04-02T20:21:24.421Z,14.50
2018-04-02T20:23:52.680Z,14.60
2018-04-02T20:26:20.969Z,14.41
2018-04-02T20:28:49.254Z,14.29
2018-04-02T20:31:17.510Z,14.44
2018-04-02T20:33:45.795Z,14.42
2018-04-02T20:36:14.059Z,14.48
2018-04-02T20:38:42.332Z,14.49
2018-04-02T20:41:10.609Z,14.30
2018-04-02T20:43:38.871Z,14.46
2018-04-02T20:46:07.140Z,14.34
2018-04-02T20:48:35.430Z,14.47
2018-04-02T20:51:03.687Z,14.12
2018-04-02T20:53:31.951Z,14.36
2018-04-02T20:56:00.224Z,14.18
2018-04-02T20:58:28.486Z,14.19
2018-04-02T21:00:56.747Z,14.28
2018-04-02T21:03:25.036Z,14.22
2018-04-02T21:05:53.292Z,14.19
2018-04-02T21:08:21.555Z,14.25
2018-04-02T21:10:49.863Z,14.35
2018-04-02T21:13:18.123Z,14.37
2018-04-02T21:15:46.388Z,14.21
2018-04-02T21:18:14.692Z,14.13
2018-04-02T21:20:42.956Z,14.22
2018-04-02T21:23:11.216Z,14.15
2018-04-02T21:25:39.531Z,14.15
2018-04-02T21:28:07.809Z,14.20
2018-04-02T21:30:36.101Z,14.18
2018-04-02T21:33:04.380Z,14.04
2018-04-02T21:35:32.671Z,14.23
2018-04-02T21:38:01.034Z,14.20
2018-04-02T21:40:29.264Z,14.04
2018-04-02T21:42:58.527Z,13.93
2018-04-02T21:45:26.793Z,13.93
2018-04-02T21:47:55.065Z,14.13
2018-04-02T21:50:23.332Z,13.96
2018-04-02T21:52:51.592Z,13.94
2018-04-02T21:55:19.893Z,13.90
2018-04-02T21:57:48.167Z,13.87
2018-04-02T22:00:16.435Z,13.92
2018-04-02T22:02:44.720Z,13.84
2018-04-02T22:05:12.979Z,13.97
2018-04-02T22:07:41.239Z,14.07
2018-04-02T22:10:09.519Z,13.98
2018-04-02T22:12:38.008Z,14.07
2018-04-02T22:15:06.239Z,13.97
2018-04-02T22:17:34.519Z,13.98
2018-04-02T22:20:03.781Z,14.00
2018-04-02T22:22:32.036Z,14.11
2018-04-02T22:25:00.314Z,14.04
2018-04-02T22:27:28.570Z,14.08
2018-04-02T22:29:56.857Z,13.87
2018-04-02T22:32:25.127Z,13.93
2018-04-02T22:34:55.363Z,13.88
2018-04-02T22:37:23.628Z,13.91
2018-04-02T22:39:52.172Z,13.89
2018-04-02T22:42:20.435Z,13.95
2018-04-02T22:44:48.700Z,13.77
2018-04-02T22:47:16.979Z,13.91
2018-04-02T22:49:45.250Z,13.82
2018-04-02T22:52:13.513Z,13.88
2018-04-02T22:54:41.791Z,13.88
2018-04-02T22:57:10.055Z,14.03
2018-04-02T22:59:38.325Z,13.86
2018-04-02T23:02:06.595Z,13.84
2018-04-02T23:04:34.859Z,13.96
2018-04-02T23:07:03.127Z,13.79
2018-04-02T23:09:31.404Z,13.85
2018-04-02T23:11:59.671Z,13.91
2018-04-02T23:14:27.928Z,13.83
2018-04-02T23:16:56.205Z,14.01
2018-04-02T23:19:24.467Z,13.93
2018-04-02T23:21:52.729Z,13.82
2018-04-02T23:24:21.027Z,13.85
2018-04-02T23:26:49.272Z,14.00
2018-04-02T23:29:17.539Z,14.01
2018-04-02T23:31:45.811Z,13.96
2018-04-02T23:34:14.081Z,13.95
2018-04-02T23:36:42.354Z,13.90
2018-04-02T23:39:10.619Z,14.01
2018-04-02T23:41:38.879Z,14.14
2018-04-02T23:44:07.148Z,14.19
2018-04-02T23:46:35.437Z,14.22
2018-04-02T23:49:03.692Z,14.31
2018-04-02T23:51:31.957Z,14.38
2018-04-02T23:54:00.230Z,14.23
2018-04-02T23:56:28.499Z,14.21
2018-04-02T23:58:56.764Z,14.21
